Time;durP1;ratioP1;P1;durP2;ratioP2;P2;SDS_P1;SDS_P2;PMS_P1;PMS_P2;Temp;Humidity;BMP_temperature;BMP_pressure;BME280_temperature;BME280_humidity;BME280_pressure;Samples;Min_cycle;Max_cycle;Signal;HPM_P1;HPM_P2
2022/12/27 00:00:09;;;;;;;3.43;1.73;;;;;;;6.34;100.00;100472.69;1639808;85;21548;-75
2022/12/27 00:02:44;;;;;;;5.13;1.50;;;;;;;6.34;100.00;100470.53;1645197;85;21086;-75
2022/12/27 00:05:14;;;;;;;4.27;2.00;;;;;;;6.31;100.00;100471.44;1640297;85;21164;-75
2022/12/27 00:07:43;;;;;;;4.50;1.90;;;;;;;6.32;100.00;100480.98;1640214;87;21125;-75
2022/12/27 00:10:11;;;;;;;4.30;2.13;;;;;;;6.31;100.00;100487.50;1652668;84;21042;-76
2022/12/27 00:12:38;;;;;;;2.20;1.50;;;;;;;6.30;100.00;100491.86;1631368;85;21063;-76
2022/12/27 00:15:07;;;;;;;5.23;2.03;;;;;;;6.28;100.00;100493.63;1631195;85;21081;-75
2022/12/27 00:17:35;;;;;;;3.57;1.90;;;;;;;6.27;100.00;100510.14;1629234;85;21560;-75
2022/12/27 00:20:05;;;;;;;5.07;2.10;;;;;;;6.28;100.00;100501.88;1636374;85;21031;-76
2022/12/27 00:22:33;;;;;;;3.25;1.70;;;;;;;6.27;100.00;100503.63;1631147;85;21044;-75
2022/12/27 00:25:01;;;;;;;3.07;2.00;;;;;;;6.27;100.00;100505.38;1631194;87;21024;-75
2022/12/27 00:27:29;;;;;;;2.40;1.70;;;;;;;6.26;100.00;100503.20;1633744;86;21115;-75
2022/12/27 00:29:56;;;;;;;3.30;1.63;;;;;;;6.24;100.00;100512.35;1631035;87;21150;-75
2022/12/27 00:32:24;;;;;;;3.90;1.87;;;;;;;6.26;100.00;100520.12;1630988;85;21548;-75
2022/12/27 00:34:51;;;;;;;4.60;2.23;;;;;;;6.24;100.00;100528.42;1630244;86;21043;-75
2022/12/27 00:37:18;;;;;;;3.40;1.90;;;;;;;6.25;100.00;100537.48;1615325;87;21149;-75
2022/12/27 00:39:46;;;;;;;2.50;1.57;;;;;;;6.25;100.00;100540.53;1630919;86;21016;-78
2022/12/27 00:42:14;;;;;;;2.80;1.83;;;;;;;6.25;100.00;100541.84;1640640;86;21153;-75
2022/12/27 00:44:42;;;;;;;4.73;2.17;;;;;;;6.25;100.00;100549.20;1634263;85;21019;-74
2022/12/27 00:47:09;;;;;;;3.27;1.33;;;;;;;6.25;100.00;100562.21;1631033;85;21090;-75
2022/12/27 00:49:37;;;;;;;2.47;1.23;;;;;;;6.22;100.00;100575.28;1642694;85;21070;-75
2022/12/27 00:52:04;;;;;;;4.33;1.30;;;;;;;6.19;100.00;100572.73;1631112;87;21568;-75
2022/12/27 00:54:31;;;;;;;3.93;1.20;;;;;;;6.18;100.00;100579.25;1644203;85;21108;-77
2022/12/27 00:56:58;;;;;;;1.40;0.80;;;;;;;6.16;100.00;100581.05;1630753;87;21379;-75
2022/12/27 00:59:31;;;;;;;4.30;0.90;;;;;;;6.13;100.00;100593.66;1629123;85;21516;-74
2022/12/27 01:01:58;;;;;;;1.57;0.83;;;;;;;6.10;100.00;100597.61;1629882;85;21142;-75
2022/12/27 01:04:28;;;;;;;2.33;0.93;;;;;;;6.10;100.00;100603.27;1630398;86;21303;-75
2022/12/27 01:06:54;;;;;;;4.62;0.80;;;;;;;6.06;100.00;100604.18;1633803;86;21326;-75
2022/12/27 01:09:25;;;;;;;2.07;0.93;;;;;;;6.03;100.00;100605.94;1630655;85;21098;-75
2022/12/27 01:11:52;;;;;;;3.33;1.03;;;;;;;5.98;99.85;100614.25;1625081;86;21096;-75
2022/12/27 01:14:19;;;;;;;2.57;1.03;;;;;;;5.94;99.75;100621.69;1628606;86;21152;-75
2022/12/27 01:16:46;;;;;;;2.80;1.00;;;;;;;5.92;99.64;100639.02;1660515;86;21058;-75
2022/12/27 01:19:14;;;;;;;1.20;0.60;;;;;;;5.88;99.64;100636.06;1662152;85;21505;-74
2022/12/27 01:21:41;;;;;;;1.90;0.67;;;;;;;5.86;99.60;100639.56;1660286;84;21537;-74
2022/12/27 01:24:08;;;;;;;2.73;0.70;;;;;;;5.83;99.46;100640.91;1655607;84;21054;-75
2022/12/27 01:26:35;;;;;;;2.37;0.57;;;;;;;5.78;99.36;100637.91;1661783;84;21008;-75
2022/12/27 01:29:02;;;;;;;1.70;0.50;;;;;;;5.73;99.22;100653.16;1665855;84;21639;-75
2022/12/27 01:31:29;;;;;;;1.07;0.60;;;;;;;5.68;99.10;100648.05;1663991;86;21892;-79
2022/12/27 01:33:59;;;;;;;3.43;0.80;;;;;;;5.67;99.03;100657.15;1663669;86;21015;-74
2022/12/27 01:36:30;;;;;;;1.85;0.60;;;;;;;5.57;98.65;100659.88;1664051;86;28657;-75
2022/12/27 01:38:58;;;;;;;3.43;0.80;;;;;;;5.57;98.65;100659.88;1662937;84;21027;-76
2022/12/27 01:44:48;;;;;;;3.37;0.60;;;;;;;5.50;98.21;100665.16;1668192;84;21224;-75
2022/12/27 01:47:30;;;;;;;4.13;0.60;;;;;;;5.44;98.06;100667.39;1663310;86;21082;-74
2022/12/27 01:50:27;;;;;;;6.47;0.90;;;;;;;5.39;97.85;100676.12;1663757;84;21011;-76
2022/12/27 01:53:28;;;;;;;4.70;0.70;;;;;;;5.34;97.67;100695.22;1663957;84;21073;-75
2022/12/27 01:56:01;;;;;;;3.47;0.70;;;;;;;5.28;97.44;100703.53;1665646;85;21078;-75
2022/12/27 01:59:00;;;;;;;4.13;0.80;;;;;;;5.21;97.42;100709.23;1663168;84;21059;-75
2022/12/27 02:01:36;;;;;;;3.00;0.83;;;;;;;5.16;97.26;100715.36;1669489;84;21009;-75
2022/12/27 02:04:11;;;;;;;7.57;1.47;;;;;;;5.10;97.36;100727.53;1663717;84;21015;-75
2022/12/27 02:06:39;;;;;;;5.87;0.90;;;;;;;5.05;97.24;100724.55;1663497;86;21548;-75
2022/12/27 02:09:39;;;;;;;5.53;1.00;;;;;;;5.00;97.23;100727.18;1663708;84;21078;-75
2022/12/27 02:12:08;;;;;;;5.10;0.80;;;;;;;4.98;97.29;100724.17;1655153;85;21941;-76
2022/12/27 02:14:43;;;;;;;3.77;0.87;;;;;;;4.97;97.34;100727.66;1638570;85;21608;-75
2022/12/27 02:17:18;;;;;;;4.90;1.00;;;;;;;4.96;97.30;100734.59;1633273;85;21097;-75
2022/12/27 02:20:21;;;;;;;5.47;1.30;;;;;;;4.96;97.34;100738.48;1638096;87;21497;-76
2022/12/27 02:26:48;;;;;;;3.57;1.10;;;;;;;4.94;97.16;100749.77;1580848;89;21727;-80
2022/12/27 02:29:39;;;;;;;3.03;0.80;;;;;;;4.92;97.13;100757.11;1653291;85;22111;-76
2022/12/27 02:32:15;;;;;;;2.70;0.60;;;;;;;4.89;97.10;100761.48;1639520;86;21071;-76
2022/12/27 02:35:08;;;;;;;9.67;1.27;;;;;;;4.89;97.08;100767.53;1611547;87;21530;-76
2022/12/27 02:37:47;;;;;;;7.47;1.20;;;;;;;4.89;97.02;100767.53;1641437;85;21395;-75
2022/12/27 02:59:32;;;;;;;5.80;1.27;;;;;;;4.59;96.19;100785.48;1644216;85;21057;-76
2022/12/27 03:05:23;;;;;;;6.63;1.20;;;;;;;4.43;95.85;100794.23;1629240;85;21077;-76
2022/12/27 03:08:01;;;;;;;5.10;0.93;;;;;;;4.37;95.75;100806.81;1603674;87;21084;-75
2022/12/27 03:16:58;;;;;;;8.23;1.10;;;;;;;4.14;95.51;100818.59;1623969;86;21071;-75
2022/12/27 03:25:28;;;;;;;6.10;1.00;;;;;;;3.96;95.53;100847.19;1594417;87;22305;-75
2022/12/27 03:33:41;;;;;;;5.70;1.20;;;;;;;3.91;95.81;100868.41;1618046;88;21528;-76
2022/12/27 03:39:32;;;;;;;5.77;1.60;;;;;;;3.87;95.70;100870.11;1628761;86;21166;-76
2022/12/27 03:44:54;;;;;;;8.17;1.70;;;;;;;3.83;95.61;100883.11;1590479;88;21123;-76
2022/12/27 03:47:50;;;;;;;5.20;0.97;;;;;;;3.81;95.54;100894.77;1589788;89;21046;-76
2022/12/27 03:50:30;;;;;;;8.70;1.20;;;;;;;3.80;95.50;100892.61;1589905;88;21520;-76
2022/12/27 03:53:20;;;;;;;6.47;1.52;;;;;;;3.78;95.43;100892.19;1589646;87;21158;-77
2022/12/27 03:55:48;;;;;;;6.15;1.17;;;;;;;3.74;95.25;100898.22;1579198;89;21093;-76
2022/12/27 03:58:16;;;;;;;7.80;2.10;;;;;;;3.72;95.17;100902.56;1589775;88;21094;-76
2022/12/27 04:00:43;;;;;;;11.00;1.90;;;;;;;3.67;95.03;100906.45;1590025;88;21452;-76
2022/12/27 04:03:10;;;;;;;7.63;1.77;;;;;;;3.64;95.05;100905.59;1589779;87;21082;-75
2022/12/27 04:05:37;;;;;;;5.17;1.40;;;;;;;3.61;94.98;100917.27;1589427;88;22088;-76
2022/12/27 04:35:44;;;;;;;6.07;1.00;;;;;;;3.22;94.49;100932.78;1628114;85;21083;-76
2022/12/27 04:38:12;;;;;;;8.17;1.77;;;;;;;3.20;94.53;100935.80;1629742;85;21065;-77
2022/12/27 04:54:56;;;;;;;6.03;1.30;;;;;;;3.03;94.45;100958.21;1602160;86;21072;-76
2022/12/27 04:57:26;;;;;;;4.73;1.37;;;;;;;2.99;94.39;100949.55;1629215;85;21029;-76
2022/12/27 05:02:39;;;;;;;7.87;1.47;;;;;;;2.97;94.38;100970.70;1560427;89;21117;-76
2022/12/27 05:05:08;;;;;;;5.80;1.43;;;;;;;2.95;94.31;100971.56;1621423;86;21521;-76
2022/12/27 05:15:59;;;;;;;6.20;1.27;;;;;;;2.85;94.26;100977.98;1645324;85;21093;-76
2022/12/27 05:18:27;;;;;;;11.30;1.77;;;;;;;2.84;94.31;100982.73;1659120;85;21057;-76
2022/12/27 05:20:54;;;;;;;6.17;1.50;;;;;;;2.84;94.37;100977.56;1636503;85;21085;-78
2022/12/27 05:26:06;;;;;;;7.57;1.43;;;;;;;2.85;94.27;100982.30;1637682;87;21124;-77
2022/12/27 05:28:33;;;;;;;6.30;1.00;;;;;;;2.86;94.35;100983.61;1631840;86;21116;-77
2022/12/27 05:31:01;;;;;;;6.70;1.23;;;;;;;2.88;94.31;100983.60;1560184;90;21028;-77
2022/12/27 05:33:31;;;;;;;5.97;1.77;;;;;;;2.87;94.21;100985.77;1645723;85;21171;-77
2022/12/27 05:35:59;;;;;;;4.37;1.00;;;;;;;2.86;94.17;100984.05;1637793;86;21071;-77
2022/12/27 05:38:27;;;;;;;7.40;1.73;;;;;;;2.87;94.28;100985.33;1642305;85;21164;-77
2022/12/27 05:41:00;;;;;;;8.63;1.67;;;;;;;2.90;94.30;101003.90;1618120;87;21277;-77
2022/12/27 05:43:28;;;;;;;12.17;1.30;;;;;;;2.92;94.27;101015.58;1608786;87;21081;-77
2022/12/27 05:46:08;;;;;;;8.73;1.17;;;;;;;2.95;94.29;101015.15;1611749;86;21518;-77
2022/12/27 05:48:36;;;;;;;7.10;1.12;;;;;;;2.94;94.19;101015.12;1595934;88;26570;-78
2022/12/27 05:51:09;;;;;;;8.97;1.90;;;;;;;2.95;94.20;101013.00;1593676;88;21922;-77
2022/12/27 05:53:37;;;;;;;9.13;1.30;;;;;;;2.94;94.15;101019.02;1604195;87;21088;-77
2022/12/27 05:56:05;;;;;;;8.97;2.10;;;;;;;2.93;94.11;101019.45;1606441;86;21316;-77
2022/12/27 05:58:32;;;;;;;8.93;1.33;;;;;;;2.92;94.07;101022.05;1633091;85;21072;-76
2022/12/27 06:01:00;;;;;;;11.80;1.70;;;;;;;2.93;94.21;101018.59;1637342;85;21089;-77
2022/12/27 06:03:28;;;;;;;7.33;1.30;;;;;;;2.95;94.13;101024.64;1641838;85;21126;-77
2022/12/27 06:06:03;;;;;;;5.13;1.07;;;;;;;2.95;94.05;101025.50;1639794;85;21104;-77
2022/12/27 06:08:31;;;;;;;9.13;1.13;;;;;;;2.94;93.98;101030.27;1620070;87;21064;-77
2022/12/27 06:11:12;;;;;;;7.10;1.23;;;;;;;2.94;93.96;101045.80;1567969;90;21059;-77
2022/12/27 06:13:41;;;;;;;7.25;1.27;;;;;;;2.92;93.91;101058.30;1599251;89;21074;-76
2022/12/27 06:16:11;;;;;;;4.90;0.90;;;;;;;2.92;93.96;101043.63;1586516;89;21141;-77
2022/12/27 06:18:41;;;;;;;4.33;0.90;;;;;;;2.90;93.93;101050.08;1598814;89;27121;-77
2022/12/27 06:21:12;;;;;;;6.13;1.20;;;;;;;2.89;93.89;101049.65;1599151;89;21563;-76
2022/12/27 06:23:41;;;;;;;9.10;1.50;;;;;;;2.86;93.84;101049.64;1599015;89;21007;-73
2022/12/27 06:26:19;;;;;;;10.20;1.60;;;;;;;2.84;93.77;101051.78;1598260;89;21265;-73
2022/12/27 06:28:48;;;;;;;6.93;1.60;;;;;;;2.80;93.76;101053.50;1598426;89;21146;-73
2022/12/27 06:31:17;;;;;;;6.57;1.30;;;;;;;2.78;93.90;101055.64;1598793;89;21005;-75
2022/12/27 06:33:45;;;;;;;9.80;1.83;;;;;;;2.76;93.85;101066.41;1592298;89;21073;-74
2022/12/27 06:36:16;;;;;;;6.47;1.10;;;;;;;2.73;93.76;101068.55;1577827;90;21572;-72
2022/12/27 06:38:43;;;;;;;10.07;1.30;;;;;;;2.68;93.73;101065.06;1573315;88;21115;-85
2022/12/27 06:41:16;;;;;;;4.40;1.10;;;;;;;2.66;93.76;101080.59;1567843;89;21163;-76
2022/12/27 06:43:44;;;;;;;8.07;1.47;;;;;;;2.63;93.76;101076.70;1576838;88;21011;-75
2022/12/27 06:46:16;;;;;;;8.03;1.13;;;;;;;2.61;93.72;101093.08;1574103;88;21099;-84
2022/12/27 06:48:46;;;;;;;10.57;1.37;;;;;;;2.59;93.87;101090.89;1573854;89;21104;-81
2022/12/27 06:51:16;;;;;;;10.67;1.33;;;;;;;2.55;93.88;101090.02;1577196;90;21072;-75
2022/12/27 06:53:47;;;;;;;6.67;1.37;;;;;;;2.54;93.89;101106.38;1569608;88;21148;-86
2022/12/27 06:56:20;;;;;;;7.17;0.97;;;;;;;2.53;93.90;101102.50;1567155;89;21095;-74
2022/12/27 06:58:49;;;;;;;9.90;1.57;;;;;;;2.51;93.87;101111.97;1613296;87;21074;-80
2022/12/27 07:01:26;;;;;;;7.77;1.87;;;;;;;2.49;93.92;101114.53;1619962;87;21061;-76
2022/12/27 07:03:57;;;;;;;6.80;1.13;;;;;;;2.48;93.90;101114.54;1603082;87;21816;-77
2022/12/27 07:06:30;;;;;;;9.23;1.40;;;;;;;2.46;93.94;101114.08;1609809;86;21075;-75
2022/12/27 07:09:02;;;;;;;5.95;1.10;;;;;;;2.45;93.95;101119.26;1602347;88;21093;-91
2022/12/27 07:11:34;;;;;;;4.47;1.07;;;;;;;2.43;93.89;101123.55;1572233;89;21167;-78
2022/12/27 07:14:02;;;;;;;8.83;1.40;;;;;;;2.41;93.90;101129.13;1563535;90;21091;-75
2022/12/27 07:16:30;;;;;;;7.23;1.40;;;;;;;2.41;93.95;101129.13;1561891;89;21794;-80
2022/12/27 07:18:58;;;;;;;7.10;1.10;;;;;;;2.39;93.95;101140.77;1555038;90;21169;-77
2022/12/27 07:21:28;;;;;;;7.30;1.53;;;;;;;2.39;93.99;101148.54;1562775;90;21078;-74
2022/12/27 07:23:56;;;;;;;7.87;1.40;;;;;;;2.39;93.98;101148.54;1560117;89;21089;-74
2022/12/27 07:26:28;;;;;;;8.50;1.60;;;;;;;2.40;94.00;101159.31;1589537;87;21132;-73
2022/12/27 07:29:00;;;;;;;6.83;1.40;;;;;;;2.39;93.94;101160.18;1585876;88;21117;-79
2022/12/27 07:31:31;;;;;;;8.80;1.83;;;;;;;2.40;93.95;101164.92;1588714;89;21159;-76
2022/12/27 07:34:01;;;;;;;8.33;1.85;;;;;;;2.40;93.94;101162.34;1587484;89;21588;-73
2022/12/27 07:36:36;;;;;;;4.97;1.05;;;;;;;2.40;93.89;101168.80;1589517;89;21113;-78
2022/12/27 07:39:04;;;;;;;8.47;1.37;;;;;;;2.40;93.86;101171.39;1588330;89;21113;-78
2022/12/27 07:41:31;;;;;;;7.23;1.10;;;;;;;2.38;93.89;101176.57;1586589;89;21132;-81
2022/12/27 07:44:00;;;;;;;7.10;1.20;;;;;;;2.38;93.80;101179.16;1589072;89;21131;-79
2022/12/27 07:46:28;;;;;;;4.67;1.27;;;;;;;2.38;93.87;101179.16;1589534;89;22144;-79
2022/12/27 07:48:57;;;;;;;7.60;1.17;;;;;;;2.40;93.86;101194.24;1586385;89;21137;-78
2022/12/27 07:51:25;;;;;;;8.63;1.57;;;;;;;2.41;93.77;101192.12;1590405;87;21114;-74
2022/12/27 07:53:53;;;;;;;7.13;1.30;;;;;;;2.43;93.77;101186.94;1589912;89;21107;-88
2022/12/27 07:56:27;;;;;;;5.37;0.90;;;;;;;2.44;93.75;101190.84;1587997;88;21645;-81
2022/12/27 07:58:57;;;;;;;6.40;1.40;;;;;;;2.48;93.71;101193.45;1585655;89;21332;-81
2022/12/27 08:01:27;;;;;;;7.65;1.15;;;;;;;2.50;93.67;101191.33;1587761;88;21767;-76
2022/12/27 08:03:56;;;;;;;6.50;1.12;;;;;;;2.51;93.59;101190.89;1587164;89;21599;-80
2022/12/27 08:06:33;;;;;;;4.60;1.27;;;;;;;2.51;93.52;101203.40;1587503;89;21103;-82
2022/12/27 08:09:05;;;;;;;3.97;1.43;;;;;;;2.53;93.49;101206.02;1586498;88;21226;-81
2022/12/27 08:11:32;;;;;;;8.90;1.30;;;;;;;2.53;93.39;101212.48;1587767;87;21085;-74
2022/12/27 08:14:00;;;;;;;6.33;1.10;;;;;;;2.54;93.45;101203.86;1601626;88;21081;-76
2022/12/27 08:16:27;;;;;;;5.87;1.10;;;;;;;2.55;93.36;101207.77;1636500;85;21046;-77
2022/12/27 08:18:55;;;;;;;4.27;0.90;;;;;;;2.58;93.38;101202.61;1635450;85;21664;-80
2022/12/27 08:21:22;;;;;;;6.30;1.10;;;;;;;2.60;93.31;101202.17;1606986;87;21142;-79
2022/12/27 08:23:49;;;;;;;8.43;1.50;;;;;;;2.63;93.25;101198.34;1590106;90;22472;-79
2022/12/27 08:26:17;;;;;;;5.37;1.13;;;;;;;2.68;93.18;101199.22;1590581;88;21110;-76
2022/12/27 08:28:44;;;;;;;5.27;1.17;;;;;;;2.72;93.17;101191.08;1590044;88;21067;-77
2022/12/27 08:31:12;;;;;;;4.87;1.10;;;;;;;2.77;92.82;101191.09;1591486;88;21098;-74
2022/12/27 08:33:40;;;;;;;4.37;1.03;;;;;;;2.82;92.90;101186.81;1589953;88;21125;-75
2022/12/27 08:36:11;;;;;;;3.50;1.00;;;;;;;2.86;92.79;101193.34;1589718;89;21113;-83
2022/12/27 08:38:38;;;;;;;;;;;;;;;2.90;92.76;101190.33;1591828;89;21332;-75
2022/12/27 08:41:05;;;;;;;4.30;0.97;;;;;;;2.96;92.58;101195.55;1635332;85;20210;-76
2022/12/27 08:43:32;;;;;;;4.40;0.93;;;;;;;3.01;92.54;101204.66;1606272;87;21080;-79
2022/12/27 08:46:03;;;;;;;4.50;1.10;;;;;;;3.05;92.28;101203.40;1636815;85;21073;-73
2022/12/27 08:48:32;;;;;;;4.83;0.90;;;;;;;3.12;91.97;101210.34;1635779;87;21717;-76
2022/12/27 08:51:07;;;;;;;4.07;1.00;;;;;;;3.18;91.71;101199.58;1633986;87;21559;-76
2022/12/27 08:53:34;;;;;;;4.13;1.10;;;;;;;3.23;91.78;101231.56;1633758;87;21087;-80
2022/12/27 08:56:01;;;;;;;5.90;1.00;;;;;;;3.28;91.56;101207.42;1636438;85;21137;-75
2022/12/27 08:58:29;;;;;;;6.77;1.20;;;;;;;3.35;91.45;101216.97;1605607;87;22009;-75
2022/12/27 09:01:06;;;;;;;5.50;0.90;;;;;;;3.45;91.29;101220.91;1635527;86;21060;-77
2022/12/27 09:03:36;;;;;;;5.33;1.07;;;;;;;3.51;91.09;101220.92;1634285;87;21112;-85
2022/12/27 09:06:18;;;;;;;4.03;0.93;;;;;;;3.62;90.96;101222.28;1632839;86;21080;-83
2022/12/27 09:08:47;;;;;;;4.63;1.13;;;;;;;3.73;90.77;101224.05;1634479;87;21111;-80
2022/12/27 09:11:25;;;;;;;7.33;1.20;;;;;;;3.82;90.54;101218.03;1627804;87;22274;-75
2022/12/27 09:13:52;;;;;;;3.50;1.00;;;;;;;3.94;90.41;101230.20;1613113;86;21079;-74
2022/12/27 09:16:38;;;;;;;3.77;1.10;;;;;;;4.03;90.11;101208.17;1608459;86;21067;-79
2022/12/27 09:19:05;;;;;;;5.40;0.80;;;;;;;4.12;89.92;101219.86;1610244;86;21110;-80
2022/12/27 09:21:33;;;;;;;3.87;1.00;;;;;;;4.22;89.22;101225.52;1605735;86;21576;-81
2022/12/27 09:24:01;;;;;;;4.07;1.00;;;;;;;4.29;89.09;101213.84;1602011;87;21131;-82
2022/12/27 09:26:29;;;;;;;5.40;1.07;;;;;;;4.40;89.00;101215.58;1606865;86;21176;-80
2022/12/27 09:28:58;;;;;;;2.70;0.80;;;;;;;4.51;88.81;101214.74;1605744;86;21130;-83
2022/12/27 09:31:26;;;;;;;4.17;1.10;;;;;;;4.62;88.89;101218.20;1606116;86;21090;-83
2022/12/27 09:33:54;;;;;;;3.37;0.90;;;;;;;4.73;88.58;101231.20;1607656;86;21141;-83
2022/12/27 09:36:25;;;;;;;7.60;1.17;;;;;;;4.78;88.08;101225.58;1610711;86;21806;-83
2022/12/27 09:38:54;;;;;;;5.90;1.10;;;;;;;4.84;87.90;101217.78;1602675;86;21555;-82
2022/12/27 09:41:51;;;;;;;6.20;1.53;;;;;;;4.95;87.72;101224.27;1614211;87;22272;-82
2022/12/27 09:44:26;;;;;;;7.10;1.00;;;;;;;5.00;87.51;101215.61;1574686;90;21209;-77
2022/12/27 09:47:04;;;;;;;6.93;1.20;;;;;;;5.12;87.48;101219.47;1576608;89;21754;-79
2022/12/27 09:49:43;;;;;;;4.97;0.83;;;;;;;5.24;87.22;101221.21;1571500;90;21151;-83
2022/12/27 09:52:19;;;;;;;3.37;1.10;;;;;;;5.29;86.63;101215.57;1572122;90;21075;-77
2022/12/27 09:55:00;;;;;;;3.33;0.90;;;;;;;5.44;86.65;101230.70;1574147;89;21130;-77
2022/12/27 09:57:35;;;;;;;4.80;1.00;;;;;;;5.54;86.05;101231.08;1568869;89;20999;-79
2022/12/27 10:00:07;;;;;;;5.50;1.17;;;;;;;5.59;85.60;101229.34;1573743;90;21631;-84
2022/12/27 10:02:34;;;;;;;2.70;1.10;;;;;;;5.69;85.55;101238.84;1553022;90;21381;-81
2022/12/27 10:05:04;;;;;;;2.80;1.00;;;;;;;5.87;84.96;101232.69;1573843;90;21090;-79
2022/12/27 10:07:56;;;;;;;5.05;0.95;;;;;;;5.88;84.75;101243.55;1566614;90;21161;-81
2022/12/27 10:10:53;;;;;;;4.83;1.30;;;;;;;5.97;84.43;101258.28;1571529;89;21134;-82
2022/12/27 10:13:44;;;;;;;3.97;0.93;;;;;;;6.03;83.44;101241.33;1591879;87;21641;-80
2022/12/27 10:16:29;;;;;;;3.57;0.90;;;;;;;6.12;83.65;101228.70;1648309;86;21644;-76
2022/12/27 10:19:21;;;;;;;3.23;0.80;;;;;;;6.22;83.41;101235.16;1616360;86;21098;-76
2022/12/27 10:22:33;;;;;;;4.40;0.90;;;;;;;6.34;82.99;101233.35;1586048;88;21099;-80
2022/12/27 10:25:06;;;;;;;7.07;1.10;;;;;;;6.51;82.81;101231.49;1594717;87;21096;-80
2022/12/27 10:27:33;;;;;;;8.93;3.33;;;;;;;6.57;81.43;101236.69;1600526;88;21116;-83
2022/12/27 10:30:02;;;;;;;3.53;1.07;;;;;;;6.39;80.45;101239.41;1654604;85;21365;-82
2022/12/27 10:32:29;;;;;;;5.60;2.20;;;;;;;6.27;80.64;101242.09;1653852;86;21514;-79
2022/12/27 10:35:02;;;;;;;4.60;1.73;;;;;;;6.24;80.36;101236.47;1653111;86;21640;-81
2022/12/27 10:37:29;;;;;;;4.13;1.30;;;;;;;6.11;80.47;101230.89;1655343;86;21120;-82
2022/12/27 10:40:12;;;;;;;5.13;1.13;;;;;;;5.97;81.00;101246.13;1653537;85;21131;-87
2022/12/27 10:43:09;;;;;;;2.90;0.80;;;;;;;5.82;80.62;101226.67;1649401;85;21883;-84
2022/12/27 10:45:41;;;;;;;10.13;2.50;;;;;;;5.69;80.52;101231.48;1625881;84;21072;-81
2022/12/27 10:48:28;;;;;;;5.78;1.40;;;;;;;5.86;80.87;101235.31;1654241;84;21063;-81
2022/12/27 10:51:12;;;;;;;9.17;6.20;;;;;;;5.84;81.21;101223.60;1654130;85;21590;-82
2022/12/27 10:53:50;;;;;;;4.37;1.30;;;;;;;5.89;81.68;101227.05;1652509;84;21111;-77
2022/12/27 10:56:37;;;;;;;4.57;2.10;;;;;;;5.94;81.56;101227.94;1653630;85;21144;-83
2022/12/27 10:59:21;;;;;;;4.80;1.87;;;;;;;5.99;81.77;101237.89;1621172;87;21111;-78
2022/12/27 11:02:03;;;;;;;4.10;1.00;;;;;;;5.99;81.30;101235.29;1653342;84;21555;-79
2022/12/27 11:04:31;;;;;;;6.27;1.13;;;;;;;5.95;81.13;101224.45;1655896;85;21057;-79
2022/12/27 11:07:04;;;;;;;4.50;1.23;;;;;;;5.90;80.44;101240.48;1654797;85;21565;-74
2022/12/27 11:09:42;;;;;;;3.43;1.00;;;;;;;5.83;80.71;101224.93;1653749;86;21155;-74
2022/12/27 11:12:30;;;;;;;7.40;1.17;;;;;;;5.82;80.70;101222.77;1655035;84;21089;-82
2022/12/27 11:15:06;;;;;;;3.27;0.80;;;;;;;5.81;80.89;101224.48;1613570;86;21637;-75
2022/12/27 11:17:53;;;;;;;3.10;1.00;;;;;;;5.81;80.85;101240.53;1600878;88;21088;-79
2022/12/27 11:20:40;;;;;;;3.33;0.80;;;;;;;5.73;79.71;101225.38;1604399;87;21145;-77
2022/12/27 11:23:13;;;;;;;6.17;0.90;;;;;;;5.64;80.56;101231.48;1596553;87;21328;-83
2022/12/27 11:26:00;;;;;;;6.37;1.10;;;;;;;5.59;80.15;101241.04;1597395;87;21089;-79
2022/12/27 11:28:53;;;;;;;3.77;0.80;;;;;;;5.56;80.64;101225.45;1596424;88;21089;-80
2022/12/27 11:31:47;;;;;;;6.93;1.00;;;;;;;5.57;80.82;101231.06;1595963;88;21571;-80
2022/12/27 11:34:25;;;;;;;6.80;1.37;;;;;;;5.54;80.69;101241.08;1596052;87;22142;-79
2022/12/27 11:36:54;;;;;;;;;;;;;;;5.51;80.67;101242.35;1596187;87;21131;-84
2022/12/27 11:39:50;;;;;;;5.20;1.63;;;;;;;5.47;80.40;101240.64;1597416;88;20221;-79
2022/12/27 11:42:31;;;;;;;3.93;0.80;;;;;;;5.46;80.58;101235.03;1596411;88;21076;-77
2022/12/27 11:45:16;;;;;;;3.03;1.67;;;;;;;5.52;80.63;101228.50;1595762;88;21117;-76
2022/12/27 11:48:24;;;;;;;4.70;0.97;;;;;;;5.50;80.74;101231.53;1595938;88;21149;-77
2022/12/27 11:51:41;;;;;;;5.00;1.50;;;;;;;5.50;80.37;101232.83;1596265;87;21899;-78
2022/12/27 11:54:42;;;;;;;5.83;1.83;;;;;;;5.50;80.68;101238.47;1592287;88;21101;-79
2022/12/27 11:57:33;;;;;;;4.07;1.40;;;;;;;5.55;80.79;101241.48;1600386;88;21097;-86
2022/12/27 12:00:22;;;;;;;5.13;1.30;;;;;;;5.56;80.53;101228.05;1604939;88;21007;-80
2022/12/27 12:03:31;;;;;;;7.17;2.00;;;;;;;5.58;80.24;101241.48;1594935;88;21981;-81
2022/12/27 12:06:06;;;;;;;3.03;0.80;;;;;;;5.63;80.24;101237.58;1594763;88;21169;-77
2022/12/27 12:08:39;;;;;;;7.17;1.43;;;;;;;5.68;80.27;101245.34;1593467;87;21108;-77
2022/12/27 12:11:34;;;;;;;3.93;1.13;;;;;;;5.68;79.91;101245.34;1597730;87;21101;-75
2022/12/27 12:14:25;;;;;;;4.93;1.20;;;;;;;5.69;80.20;101249.25;1610185;87;21063;-80
2022/12/27 12:17:10;;;;;;;4.60;1.00;;;;;;;5.73;80.17;101250.95;1602203;87;21110;-85
2022/12/27 12:20:12;;;;;;;5.60;0.90;;;;;;;5.71;80.02;101245.33;1573361;89;22271;-74
2022/12/27 12:23:03;;;;;;;33.00;14.43;;;;;;;5.70;80.14;101250.11;1593023;88;21055;-77
2022/12/27 12:26:11;;;;;;;4.70;1.83;;;;;;;5.65;79.75;101247.95;1626662;88;22337;-76
2022/12/27 12:29:24;;;;;;;7.70;2.37;;;;;;;5.59;79.64;101245.80;1625803;86;21055;-74
2022/12/27 12:32:36;;;;;;;6.07;1.70;;;;;;;5.60;79.62;101253.19;1601586;87;22254;-73
2022/12/27 12:35:40;;;;;;;8.23;2.77;;;;;;;5.55;78.72;101251.89;1598290;86;21287;-77
2022/12/27 12:38:33;;;;;;;4.13;1.60;;;;;;;5.48;79.11;101253.20;1569464;88;21109;-74
2022/12/27 12:41:27;;;;;;;4.30;1.00;;;;;;;5.46;79.46;101258.42;1627140;86;21545;-73
2022/12/27 12:44:19;;;;;;;4.13;0.90;;;;;;;5.44;79.20;101260.16;1625984;87;21102;-76
2022/12/27 12:47:15;;;;;;;2.20;0.80;;;;;;;5.41;79.23;101261.47;1597820;87;21150;-79
2022/12/27 12:49:50;;;;;;;4.43;1.17;;;;;;;5.42;79.25;101249.33;1591957;88;21108;-77
2022/12/27 12:52:57;;;;;;;4.27;1.03;;;;;;;5.45;79.15;101252.77;1591339;88;21572;-79
2022/12/27 12:55:39;;;;;;;4.30;1.00;;;;;;;5.47;79.08;101258.84;1592335;88;21164;-71
2022/12/27 12:58:12;;;;;;;4.87;0.93;;;;;;;5.51;78.97;101252.75;1584397;88;21599;-76
2022/12/27 13:01:13;;;;;;;2.70;0.80;;;;;;;5.54;78.96;101248.88;1626284;86;21113;-74
2022/12/27 13:04:08;;;;;;;4.62;1.05;;;;;;;5.55;79.04;101255.80;1627806;85;21709;-77
2022/12/27 13:06:53;;;;;;;4.93;1.00;;;;;;;5.56;79.02;101248.85;1627244;85;21093;-76
2022/12/27 13:09:45;;;;;;;2.10;0.90;;;;;;;5.54;78.71;101247.58;1628143;85;21086;-76
2022/12/27 13:12:18;;;;;;;5.17;1.90;;;;;;;5.50;78.96;101260.14;1626135;85;21051;-75
2022/12/27 13:15:05;;;;;;;3.33;0.83;;;;;;;5.54;79.05;101264.48;1625690;85;21079;-74
2022/12/27 13:17:44;;;;;;;3.90;1.00;;;;;;;5.64;79.21;101260.54;1629257;85;21127;-76
2022/12/27 13:20:44;;;;;;;3.87;0.80;;;;;;;5.70;79.16;101274.82;1599628;87;21086;-74
2022/12/27 13:23:23;;;;;;;7.13;1.00;;;;;;;5.68;79.13;101274.84;1570895;89;21522;-75
2022/12/27 13:26:01;;;;;;;3.83;1.40;;;;;;;5.63;78.85;101281.79;1626052;85;21111;-75
2022/12/27 13:29:07;;;;;;;3.87;1.30;;;;;;;5.53;78.80;101279.62;1616404;86;22193;-88
2022/12/27 13:32:09;;;;;;;3.13;0.80;;;;;;;5.49;78.96;101282.27;1598614;87;21091;-78
2022/12/27 13:34:58;;;;;;;3.10;0.90;;;;;;;5.45;79.11;101281.37;1620575;86;21118;-74
2022/12/27 13:37:48;;;;;;;2.83;0.87;;;;;;;5.40;79.04;101287.02;1627234;86;21094;-78
2022/12/27 13:40:31;;;;;;;;;;;;;;;5.37;79.06;101306.52;1629397;86;20990;-86
2022/12/27 13:43:35;;;;;;;3.93;1.53;;;;;;;5.31;78.74;101297.00;1627260;86;20480;-89
2022/12/27 13:46:38;;;;;;;2.13;0.80;;;;;;;5.28;78.67;101297.00;1626827;85;21261;-82
2022/12/27 13:49:31;;;;;;;8.33;1.60;;;;;;;5.24;78.84;101302.22;1627501;86;21150;-76
2022/12/27 13:52:35;;;;;;;5.73;1.30;;;;;;;5.19;78.85;101303.52;1606226;87;21600;-81
2022/12/27 13:55:27;;;;;;;3.40;1.10;;;;;;;5.17;79.04;101303.08;1644583;85;21131;-92
2022/12/27 13:58:06;;;;;;;6.20;2.47;;;;;;;5.12;78.79;101301.33;1646644;85;21196;-73
2022/12/27 14:00:57;;;;;;;3.77;1.13;;;;;;;5.08;79.18;101302.22;1640063;85;21825;-87
2022/12/27 14:03:45;;;;;;;5.53;2.40;;;;;;;5.05;79.19;101310.02;1642968;86;21091;-83
2022/12/27 14:06:41;;;;;;;4.33;1.10;;;;;;;5.03;79.18;101306.54;1643196;85;21129;-76